sensor_id;sensor_type;location;lat;lon;timestamp;P1;durP1;ratioP1;P2;durP2;ratioP2
71265;SDS011;59030;52.052;8.550;2023-05-19T00:01:21;4.90;;;3.77;;
71265;SDS011;59030;52.052;8.550;2023-05-19T00:03:50;7.77;;;3.77;;
71265;SDS011;59030;52.052;8.550;2023-05-19T00:06:21;5.87;;;3.80;;
71265;SDS011;59030;52.052;8.550;2023-05-19T00:08:49;4.70;;;3.70;;
71265;SDS011;59030;52.052;8.550;2023-05-19T00:11:18;4.37;;;3.97;;
71265;SDS011;59030;52.052;8.550;2023-05-19T00:13:47;5.03;;;4.17;;
71265;SDS011;59030;52.052;8.550;2023-05-19T00:16:16;7.13;;;4.43;;
71265;SDS011;59030;52.052;8.550;2023-05-19T00:18:43;6.30;;;4.07;;
71265;SDS011;59030;52.052;8.550;2023-05-19T00:21:12;6.67;;;4.07;;
71265;SDS011;59030;52.052;8.550;2023-05-19T00:23:39;5.63;;;4.10;;
71265;SDS011;59030;52.052;8.550;2023-05-19T00:26:07;8.80;;;4.40;;
71265;SDS011;59030;52.052;8.550;2023-05-19T00:28:34;4.97;;;3.80;;
71265;SDS011;59030;52.052;8.550;2023-05-19T00:31:01;7.37;;;4.13;;
71265;SDS011;59030;52.052;8.550;2023-05-19T00:33:30;7.00;;;4.10;;
71265;SDS011;59030;52.052;8.550;2023-05-19T00:35:58;6.97;;;4.10;;
71265;SDS011;59030;52.052;8.550;2023-05-19T00:38:27;7.30;;;4.13;;
71265;SDS011;59030;52.052;8.550;2023-05-19T00:40:55;8.67;;;4.40;;
71265;SDS011;59030;52.052;8.550;2023-05-19T00:43:22;7.00;;;4.13;;
71265;SDS011;59030;52.052;8.550;2023-05-19T00:45:50;5.50;;;4.13;;
71265;SDS011;59030;52.052;8.550;2023-05-19T00:48:17;6.20;;;4.27;;
71265;SDS011;59030;52.052;8.550;2023-05-19T00:50:44;7.30;;;3.80;;
71265;SDS011;59030;52.052;8.550;2023-05-19T00:53:12;6.47;;;4.10;;
71265;SDS011;59030;52.052;8.550;2023-05-19T00:55:40;7.63;;;4.10;;
71265;SDS011;59030;52.052;8.550;2023-05-19T00:58:08;9.53;;;4.17;;
71265;SDS011;59030;52.052;8.550;2023-05-19T01:00:36;5.77;;;4.10;;
71265;SDS011;59030;52.052;8.550;2023-05-19T01:03:04;6.97;;;4.10;;
71265;SDS011;59030;52.052;8.550;2023-05-19T01:05:33;5.77;;;4.20;;
71265;SDS011;59030;52.052;8.550;2023-05-19T01:08:01;5.07;;;3.97;;
71265;SDS011;59030;52.052;8.550;2023-05-19T01:10:29;5.10;;;4.10;;
71265;SDS011;59030;52.052;8.550;2023-05-19T01:12:56;5.53;;;3.97;;
71265;SDS011;59030;52.052;8.550;2023-05-19T01:15:24;5.03;;;4.27;;
71265;SDS011;59030;52.052;8.550;2023-05-19T01:17:53;4.60;;;4.07;;
71265;SDS011;59030;52.052;8.550;2023-05-19T01:20:23;8.13;;;4.23;;
71265;SDS011;59030;52.052;8.550;2023-05-19T01:22:56;6.20;;;4.30;;
71265;SDS011;59030;52.052;8.550;2023-05-19T01:28:25;7.40;;;4.10;;
71265;SDS011;59030;52.052;8.550;2023-05-19T01:30:54;7.43;;;4.30;;
71265;SDS011;59030;52.052;8.550;2023-05-19T01:33:22;5.23;;;3.93;;
71265;SDS011;59030;52.052;8.550;2023-05-19T01:35:49;6.00;;;4.13;;
71265;SDS011;59030;52.052;8.550;2023-05-19T01:38:17;8.13;;;4.43;;
71265;SDS011;59030;52.052;8.550;2023-05-19T01:40:46;5.93;;;3.87;;
71265;SDS011;59030;52.052;8.550;2023-05-19T01:43:15;6.40;;;4.30;;
71265;SDS011;59030;52.052;8.550;2023-05-19T01:45:43;6.30;;;4.67;;
71265;SDS011;59030;52.052;8.550;2023-05-19T01:48:11;9.03;;;4.20;;
71265;SDS011;59030;52.052;8.550;2023-05-19T01:50:39;5.60;;;3.77;;
71265;SDS011;59030;52.052;8.550;2023-05-19T01:53:07;5.73;;;4.00;;
71265;SDS011;59030;52.052;8.550;2023-05-19T01:55:34;5.40;;;3.83;;
71265;SDS011;59030;52.052;8.550;2023-05-19T01:58:05;5.33;;;3.90;;
71265;SDS011;59030;52.052;8.550;2023-05-19T02:00:33;8.83;;;3.90;;
71265;SDS011;59030;52.052;8.550;2023-05-19T02:03:03;6.23;;;3.93;;
71265;SDS011;59030;52.052;8.550;2023-05-19T02:05:33;4.77;;;3.70;;
71265;SDS011;59030;52.052;8.550;2023-05-19T02:08:02;6.10;;;3.97;;
71265;SDS011;59030;52.052;8.550;2023-05-19T02:10:29;6.90;;;4.40;;
71265;SDS011;59030;52.052;8.550;2023-05-19T02:13:00;7.77;;;4.27;;
71265;SDS011;59030;52.052;8.550;2023-05-19T02:15:29;5.27;;;3.73;;
71265;SDS011;59030;52.052;8.550;2023-05-19T02:17:57;7.03;;;4.23;;
71265;SDS011;59030;52.052;8.550;2023-05-19T02:20:25;6.40;;;4.17;;
71265;SDS011;59030;52.052;8.550;2023-05-19T02:22:52;5.33;;;3.57;;
71265;SDS011;59030;52.052;8.550;2023-05-19T02:25:20;4.17;;;3.63;;
71265;SDS011;59030;52.052;8.550;2023-05-19T02:27:50;6.70;;;3.93;;
71265;SDS011;59030;52.052;8.550;2023-05-19T02:30:17;5.33;;;3.97;;
71265;SDS011;59030;52.052;8.550;2023-05-19T02:32:44;5.63;;;3.77;;
71265;SDS011;59030;52.052;8.550;2023-05-19T02:35:11;6.30;;;4.17;;
71265;SDS011;59030;52.052;8.550;2023-05-19T02:37:39;5.00;;;3.80;;
71265;SDS011;59030;52.052;8.550;2023-05-19T02:40:07;8.03;;;4.00;;
71265;SDS011;59030;52.052;8.550;2023-05-19T02:42:35;5.20;;;3.93;;
71265;SDS011;59030;52.052;8.550;2023-05-19T02:45:03;5.97;;;3.57;;
71265;SDS011;59030;52.052;8.550;2023-05-19T02:47:30;6.07;;;3.80;;
71265;SDS011;59030;52.052;8.550;2023-05-19T02:49:57;7.97;;;3.70;;
71265;SDS011;59030;52.052;8.550;2023-05-19T02:52:25;4.77;;;3.90;;
71265;SDS011;59030;52.052;8.550;2023-05-19T02:54:52;6.20;;;3.77;;
71265;SDS011;59030;52.052;8.550;2023-05-19T02:57:20;7.17;;;3.63;;
71265;SDS011;59030;52.052;8.550;2023-05-19T02:59:47;6.60;;;3.33;;
71265;SDS011;59030;52.052;8.550;2023-05-19T03:02:14;4.63;;;3.23;;
71265;SDS011;59030;52.052;8.550;2023-05-19T03:04:42;5.77;;;3.70;;
71265;SDS011;59030;52.052;8.550;2023-05-19T03:07:10;4.53;;;3.40;;
71265;SDS011;59030;52.052;8.550;2023-05-19T03:09:39;6.60;;;3.93;;
71265;SDS011;59030;52.052;8.550;2023-05-19T03:12:06;7.77;;;4.07;;
71265;SDS011;59030;52.052;8.550;2023-05-19T03:14:34;6.40;;;3.83;;
71265;SDS011;59030;52.052;8.550;2023-05-19T03:17:04;5.63;;;3.77;;
71265;SDS011;59030;52.052;8.550;2023-05-19T03:19:35;7.07;;;4.00;;
71265;SDS011;59030;52.052;8.550;2023-05-19T03:22:02;7.33;;;4.33;;
71265;SDS011;59030;52.052;8.550;2023-05-19T03:24:30;6.93;;;4.10;;
71265;SDS011;59030;52.052;8.550;2023-05-19T03:26:57;5.80;;;3.93;;
71265;SDS011;59030;52.052;8.550;2023-05-19T03:29:25;6.93;;;4.20;;
71265;SDS011;59030;52.052;8.550;2023-05-19T03:31:52;8.23;;;4.47;;
71265;SDS011;59030;52.052;8.550;2023-05-19T03:34:19;5.20;;;4.07;;
71265;SDS011;59030;52.052;8.550;2023-05-19T03:36:48;5.30;;;4.27;;
71265;SDS011;59030;52.052;8.550;2023-05-19T03:39:15;6.90;;;4.27;;
71265;SDS011;59030;52.052;8.550;2023-05-19T03:41:42;9.67;;;4.03;;
71265;SDS011;59030;52.052;8.550;2023-05-19T03:44:10;5.37;;;4.10;;
71265;SDS011;59030;52.052;8.550;2023-05-19T03:46:37;5.27;;;4.07;;
71265;SDS011;59030;52.052;8.550;2023-05-19T03:49:05;6.00;;;3.90;;
71265;SDS011;59030;52.052;8.550;2023-05-19T03:51:32;7.70;;;4.23;;
71265;SDS011;59030;52.052;8.550;2023-05-19T03:54:01;5.67;;;4.03;;
71265;SDS011;59030;52.052;8.550;2023-05-19T03:56:29;6.23;;;4.10;;
71265;SDS011;59030;52.052;8.550;2023-05-19T03:58:57;5.73;;;4.10;;
71265;SDS011;59030;52.052;8.550;2023-05-19T04:01:25;6.20;;;4.07;;
71265;SDS011;59030;52.052;8.550;2023-05-19T04:03:52;5.30;;;4.20;;
71265;SDS011;59030;52.052;8.550;2023-05-19T04:06:20;6.03;;;4.23;;
71265;SDS011;59030;52.052;8.550;2023-05-19T04:08:48;6.93;;;4.27;;
71265;SDS011;59030;52.052;8.550;2023-05-19T04:11:16;7.60;;;4.43;;
71265;SDS011;59030;52.052;8.550;2023-05-19T04:13:44;5.10;;;4.17;;
71265;SDS011;59030;52.052;8.550;2023-05-19T04:16:12;5.70;;;4.17;;
71265;SDS011;59030;52.052;8.550;2023-05-19T04:18:40;8.07;;;4.53;;
71265;SDS011;59030;52.052;8.550;2023-05-19T04:21:07;6.80;;;4.47;;
71265;SDS011;59030;52.052;8.550;2023-05-19T04:23:35;6.47;;;4.00;;
71265;SDS011;59030;52.052;8.550;2023-05-19T04:26:02;6.53;;;4.60;;
71265;SDS011;59030;52.052;8.550;2023-05-19T04:28:31;6.13;;;4.17;;
71265;SDS011;59030;52.052;8.550;2023-05-19T04:31:01;7.40;;;4.33;;
71265;SDS011;59030;52.052;8.550;2023-05-19T04:33:28;5.47;;;4.30;;
71265;SDS011;59030;52.052;8.550;2023-05-19T04:35:55;7.97;;;4.47;;
71265;SDS011;59030;52.052;8.550;2023-05-19T04:38:23;6.77;;;4.63;;
71265;SDS011;59030;52.052;8.550;2023-05-19T04:40:50;7.73;;;4.60;;
71265;SDS011;59030;52.052;8.550;2023-05-19T04:43:18;5.13;;;4.10;;
71265;SDS011;59030;52.052;8.550;2023-05-19T04:45:47;7.33;;;4.80;;
71265;SDS011;59030;52.052;8.550;2023-05-19T04:48:15;6.23;;;4.37;;
71265;SDS011;59030;52.052;8.550;2023-05-19T04:50:42;6.37;;;4.30;;
71265;SDS011;59030;52.052;8.550;2023-05-19T04:53:10;6.73;;;4.63;;
71265;SDS011;59030;52.052;8.550;2023-05-19T04:55:37;5.53;;;4.10;;
71265;SDS011;59030;52.052;8.550;2023-05-19T04:58:04;5.83;;;4.27;;
71265;SDS011;59030;52.052;8.550;2023-05-19T05:00:32;5.27;;;4.33;;
71265;SDS011;59030;52.052;8.550;2023-05-19T05:03:00;9.30;;;4.70;;
71265;SDS011;59030;52.052;8.550;2023-05-19T05:05:30;7.80;;;4.60;;
71265;SDS011;59030;52.052;8.550;2023-05-19T05:07:57;7.33;;;4.40;;
71265;SDS011;59030;52.052;8.550;2023-05-19T05:10:25;7.00;;;4.60;;
71265;SDS011;59030;52.052;8.550;2023-05-19T05:12:53;6.13;;;4.33;;
71265;SDS011;59030;52.052;8.550;2023-05-19T05:15:21;6.13;;;4.67;;
71265;SDS011;59030;52.052;8.550;2023-05-19T05:17:50;7.90;;;4.50;;
71265;SDS011;59030;52.052;8.550;2023-05-19T05:20:18;7.53;;;4.00;;
71265;SDS011;59030;52.052;8.550;2023-05-19T05:22:46;9.97;;;4.87;;
71265;SDS011;59030;52.052;8.550;2023-05-19T05:25:15;9.27;;;4.23;;
71265;SDS011;59030;52.052;8.550;2023-05-19T05:27:43;5.90;;;4.03;;
71265;SDS011;59030;52.052;8.550;2023-05-19T05:30:11;8.20;;;4.67;;
71265;SDS011;59030;52.052;8.550;2023-05-19T05:32:38;6.30;;;4.50;;
71265;SDS011;59030;52.052;8.550;2023-05-19T05:35:06;6.50;;;4.50;;
71265;SDS011;59030;52.052;8.550;2023-05-19T05:37:34;6.77;;;4.10;;
71265;SDS011;59030;52.052;8.550;2023-05-19T05:40:01;7.30;;;4.70;;
71265;SDS011;59030;52.052;8.550;2023-05-19T05:42:31;6.60;;;4.97;;
71265;SDS011;59030;52.052;8.550;2023-05-19T05:44:59;6.33;;;4.63;;
71265;SDS011;59030;52.052;8.550;2023-05-19T05:47:26;7.77;;;4.40;;
71265;SDS011;59030;52.052;8.550;2023-05-19T05:49:55;5.53;;;4.13;;
71265;SDS011;59030;52.052;8.550;2023-05-19T05:52:22;7.80;;;4.40;;
71265;SDS011;59030;52.052;8.550;2023-05-19T05:54:52;8.10;;;4.23;;
71265;SDS011;59030;52.052;8.550;2023-05-19T05:57:19;7.50;;;4.40;;
71265;SDS011;59030;52.052;8.550;2023-05-19T05:59:47;7.43;;;4.50;;
71265;SDS011;59030;52.052;8.550;2023-05-19T06:02:19;6.07;;;3.90;;
71265;SDS011;59030;52.052;8.550;2023-05-19T06:04:46;7.23;;;4.40;;
71265;SDS011;59030;52.052;8.550;2023-05-19T06:07:14;5.40;;;3.63;;
71265;SDS011;59030;52.052;8.550;2023-05-19T06:09:41;9.10;;;4.23;;
71265;SDS011;59030;52.052;8.550;2023-05-19T06:12:09;7.23;;;4.33;;
71265;SDS011;59030;52.052;8.550;2023-05-19T06:14:36;5.67;;;4.03;;
71265;SDS011;59030;52.052;8.550;2023-05-19T06:17:04;6.20;;;4.00;;
71265;SDS011;59030;52.052;8.550;2023-05-19T06:19:31;5.87;;;4.10;;
71265;SDS011;59030;52.052;8.550;2023-05-19T06:21:59;6.27;;;4.00;;
71265;SDS011;59030;52.052;8.550;2023-05-19T06:24:26;6.03;;;3.97;;
71265;SDS011;59030;52.052;8.550;2023-05-19T06:26:53;6.27;;;3.67;;
71265;SDS011;59030;52.052;8.550;2023-05-19T06:29:21;3.53;;;3.07;;
71265;SDS011;59030;52.052;8.550;2023-05-19T06:31:48;5.97;;;3.70;;
71265;SDS011;59030;52.052;8.550;2023-05-19T06:34:16;6.37;;;3.53;;
71265;SDS011;59030;52.052;8.550;2023-05-19T06:36:43;6.60;;;3.83;;
71265;SDS011;59030;52.052;8.550;2023-05-19T06:39:11;4.60;;;3.57;;
71265;SDS011;59030;52.052;8.550;2023-05-19T06:41:38;6.03;;;3.30;;
71265;SDS011;59030;52.052;8.550;2023-05-19T06:44:06;7.93;;;3.40;;
71265;SDS011;59030;52.052;8.550;2023-05-19T06:46:33;5.40;;;3.30;;
71265;SDS011;59030;52.052;8.550;2023-05-19T06:49:01;6.20;;;3.37;;
71265;SDS011;59030;52.052;8.550;2023-05-19T06:51:28;7.73;;;3.70;;
71265;SDS011;59030;52.052;8.550;2023-05-19T06:54:05;6.07;;;3.67;;
71265;SDS011;59030;52.052;8.550;2023-05-19T06:56:34;5.87;;;3.60;;
71265;SDS011;59030;52.052;8.550;2023-05-19T06:59:02;5.93;;;3.27;;
71265;SDS011;59030;52.052;8.550;2023-05-19T07:01:29;8.10;;;3.80;;
71265;SDS011;59030;52.052;8.550;2023-05-19T07:03:57;5.07;;;3.30;;
71265;SDS011;59030;52.052;8.550;2023-05-19T07:06:27;6.37;;;3.30;;
71265;SDS011;59030;52.052;8.550;2023-05-19T07:08:54;5.60;;;3.37;;
71265;SDS011;59030;52.052;8.550;2023-05-19T07:11:22;9.20;;;3.77;;
71265;SDS011;59030;52.052;8.550;2023-05-19T07:13:49;4.20;;;3.20;;
71265;SDS011;59030;52.052;8.550;2023-05-19T07:16:17;6.33;;;3.73;;
71265;SDS011;59030;52.052;8.550;2023-05-19T07:18:44;8.17;;;3.67;;
71265;SDS011;59030;52.052;8.550;2023-05-19T07:21:12;5.93;;;3.53;;
71265;SDS011;59030;52.052;8.550;2023-05-19T07:23:41;8.47;;;3.80;;
71265;SDS011;59030;52.052;8.550;2023-05-19T07:26:08;4.73;;;3.37;;
71265;SDS011;59030;52.052;8.550;2023-05-19T07:28:36;5.40;;;3.20;;
71265;SDS011;59030;52.052;8.550;2023-05-19T07:31:04;6.30;;;3.10;;
71265;SDS011;59030;52.052;8.550;2023-05-19T07:33:32;3.87;;;3.30;;
71265;SDS011;59030;52.052;8.550;2023-05-19T07:35:59;7.53;;;3.57;;
71265;SDS011;59030;52.052;8.550;2023-05-19T07:38:27;6.00;;;3.10;;
71265;SDS011;59030;52.052;8.550;2023-05-19T07:40:54;4.67;;;3.03;;
71265;SDS011;59030;52.052;8.550;2023-05-19T07:43:22;4.20;;;3.00;;
71265;SDS011;59030;52.052;8.550;2023-05-19T07:45:49;7.97;;;2.80;;
71265;SDS011;59030;52.052;8.550;2023-05-19T07:48:18;5.83;;;3.30;;
71265;SDS011;59030;52.052;8.550;2023-05-19T07:50:48;5.23;;;3.40;;
71265;SDS011;59030;52.052;8.550;2023-05-19T07:53:15;5.30;;;3.00;;
71265;SDS011;59030;52.052;8.550;2023-05-19T07:55:46;7.37;;;3.53;;
71265;SDS011;59030;52.052;8.550;2023-05-19T07:58:13;9.27;;;3.00;;
71265;SDS011;59030;52.052;8.550;2023-05-19T08:00:41;5.40;;;3.17;;
71265;SDS011;59030;52.052;8.550;2023-05-19T08:03:11;7.30;;;3.00;;
71265;SDS011;59030;52.052;8.550;2023-05-19T08:05:40;4.43;;;2.87;;
71265;SDS011;59030;52.052;8.550;2023-05-19T08:08:14;5.27;;;3.20;;
71265;SDS011;59030;52.052;8.550;2023-05-19T08:10:42;7.87;;;3.00;;
71265;SDS011;59030;52.052;8.550;2023-05-19T08:13:09;5.07;;;2.87;;
71265;SDS011;59030;52.052;8.550;2023-05-19T08:15:37;8.20;;;3.30;;
71265;SDS011;59030;52.052;8.550;2023-05-19T08:18:22;5.20;;;3.13;;
71265;SDS011;59030;52.052;8.550;2023-05-19T08:20:50;4.13;;;3.07;;
71265;SDS011;59030;52.052;8.550;2023-05-19T08:23:17;4.83;;;2.70;;
71265;SDS011;59030;52.052;8.550;2023-05-19T08:25:45;4.00;;;2.90;;
71265;SDS011;59030;52.052;8.550;2023-05-19T08:28:13;4.57;;;2.87;;
71265;SDS011;59030;52.052;8.550;2023-05-19T08:30:43;5.83;;;2.90;;
71265;SDS011;59030;52.052;8.550;2023-05-19T08:33:10;4.77;;;2.57;;
71265;SDS011;59030;52.052;8.550;2023-05-19T08:35:37;5.30;;;2.20;;
71265;SDS011;59030;52.052;8.550;2023-05-19T08:38:05;3.70;;;2.33;;
71265;SDS011;59030;52.052;8.550;2023-05-19T08:40:33;4.73;;;2.20;;
71265;SDS011;59030;52.052;8.550;2023-05-19T08:43:01;4.03;;;2.23;;
71265;SDS011;59030;52.052;8.550;2023-05-19T08:45:30;4.63;;;2.23;;
71265;SDS011;59030;52.052;8.550;2023-05-19T08:47:59;9.80;;;2.70;;
71265;SDS011;59030;52.052;8.550;2023-05-19T08:50:29;2.17;;;1.97;;
71265;SDS011;59030;52.052;8.550;2023-05-19T08:53:00;4.33;;;2.37;;
71265;SDS011;59030;52.052;8.550;2023-05-19T08:55:30;4.63;;;2.10;;
71265;SDS011;59030;52.052;8.550;2023-05-19T08:57:59;7.90;;;2.70;;
71265;SDS011;59030;52.052;8.550;2023-05-19T09:00:27;4.80;;;2.30;;
71265;SDS011;59030;52.052;8.550;2023-05-19T09:02:56;4.30;;;2.23;;
71265;SDS011;59030;52.052;8.550;2023-05-19T09:05:25;7.43;;;2.80;;
71265;SDS011;59030;52.052;8.550;2023-05-19T09:07:56;5.13;;;2.00;;
71265;SDS011;59030;52.052;8.550;2023-05-19T09:10:23;2.60;;;2.13;;
71265;SDS011;59030;52.052;8.550;2023-05-19T09:13:02;4.53;;;2.10;;
71265;SDS011;59030;52.052;8.550;2023-05-19T09:15:31;4.33;;;2.03;;
71265;SDS011;59030;52.052;8.550;2023-05-19T09:18:08;9.17;;;2.07;;
71265;SDS011;59030;52.052;8.550;2023-05-19T09:20:36;2.50;;;1.77;;
71265;SDS011;59030;52.052;8.550;2023-05-19T09:23:10;5.27;;;1.97;;
71265;SDS011;59030;52.052;8.550;2023-05-19T09:25:40;4.60;;;1.90;;
71265;SDS011;59030;52.052;8.550;2023-05-19T09:28:10;3.33;;;1.77;;
71265;SDS011;59030;52.052;8.550;2023-05-19T09:30:39;2.73;;;1.90;;
71265;SDS011;59030;52.052;8.550;2023-05-19T09:33:07;2.10;;;1.90;;
71265;SDS011;59030;52.052;8.550;2023-05-19T09:35:36;4.50;;;2.03;;
71265;SDS011;59030;52.052;8.550;2023-05-19T09:38:05;5.33;;;2.00;;
71265;SDS011;59030;52.052;8.550;2023-05-19T09:43:23;6.70;;;2.00;;
71265;SDS011;59030;52.052;8.550;2023-05-19T09:45:54;5.63;;;1.90;;
71265;SDS011;59030;52.052;8.550;2023-05-19T09:48:42;5.00;;;1.90;;
71265;SDS011;59030;52.052;8.550;2023-05-19T09:51:15;2.97;;;1.97;;
71265;SDS011;59030;52.052;8.550;2023-05-19T09:53:53;3.63;;;1.87;;
71265;SDS011;59030;52.052;8.550;2023-05-19T09:56:20;2.13;;;1.83;;
71265;SDS011;59030;52.052;8.550;2023-05-19T09:58:50;3.53;;;1.90;;
71265;SDS011;59030;52.052;8.550;2023-05-19T10:01:18;3.10;;;1.43;;
71265;SDS011;59030;52.052;8.550;2023-05-19T10:03:45;2.30;;;1.67;;
71265;SDS011;59030;52.052;8.550;2023-05-19T10:06:16;2.73;;;1.80;;
71265;SDS011;59030;52.052;8.550;2023-05-19T10:08:43;1.50;;;1.30;;
71265;SDS011;59030;52.052;8.550;2023-05-19T10:11:11;1.90;;;1.40;;
71265;SDS011;59030;52.052;8.550;2023-05-19T10:13:38;1.60;;;1.50;;
71265;SDS011;59030;52.052;8.550;2023-05-19T10:16:07;5.00;;;1.93;;
71265;SDS011;59030;52.052;8.550;2023-05-19T10:21:22;3.37;;;1.70;;
71265;SDS011;59030;52.052;8.550;2023-05-19T10:23:54;2.43;;;1.87;;
71265;SDS011;59030;52.052;8.550;2023-05-19T10:26:26;3.33;;;1.80;;
71265;SDS011;59030;52.052;8.550;2023-05-19T10:28:54;5.30;;;2.10;;
71265;SDS011;59030;52.052;8.550;2023-05-19T10:34:22;2.97;;;1.70;;
71265;SDS011;59030;52.052;8.550;2023-05-19T10:36:52;2.27;;;1.80;;
71265;SDS011;59030;52.052;8.550;2023-05-19T10:39:24;4.40;;;1.90;;
71265;SDS011;59030;52.052;8.550;2023-05-19T10:41:57;2.73;;;1.97;;
71265;SDS011;59030;52.052;8.550;2023-05-19T10:44:34;2.47;;;1.97;;
71265;SDS011;59030;52.052;8.550;2023-05-19T10:47:02;2.53;;;1.50;;
71265;SDS011;59030;52.052;8.550;2023-05-19T10:49:34;4.50;;;1.60;;
71265;SDS011;59030;52.052;8.550;2023-05-19T10:52:03;6.33;;;2.00;;
71265;SDS011;59030;52.052;8.550;2023-05-19T10:54:42;3.70;;;2.00;;
71265;SDS011;59030;52.052;8.550;2023-05-19T10:57:14;2.03;;;1.87;;
71265;SDS011;59030;52.052;8.550;2023-05-19T10:59:45;5.43;;;1.83;;
71265;SDS011;59030;52.052;8.550;2023-05-19T11:02:36;3.70;;;1.70;;
71265;SDS011;59030;52.052;8.550;2023-05-19T11:05:06;2.57;;;1.90;;
71265;SDS011;59030;52.052;8.550;2023-05-19T11:07:35;2.90;;;1.70;;
71265;SDS011;59030;52.052;8.550;2023-05-19T11:10:05;3.07;;;1.60;;
71265;SDS011;59030;52.052;8.550;2023-05-19T11:12:39;4.00;;;2.10;;
71265;SDS011;59030;52.052;8.550;2023-05-19T11:15:13;3.33;;;2.10;;
71265;SDS011;59030;52.052;8.550;2023-05-19T11:17:49;5.37;;;1.93;;
71265;SDS011;59030;52.052;8.550;2023-05-19T11:20:20;2.97;;;1.77;;
71265;SDS011;59030;52.052;8.550;2023-05-19T11:23:02;2.33;;;1.60;;
71265;SDS011;59030;52.052;8.550;2023-05-19T11:25:40;2.90;;;1.87;;
71265;SDS011;59030;52.052;8.550;2023-05-19T11:28:25;4.33;;;1.70;;
71265;SDS011;59030;52.052;8.550;2023-05-19T11:30:55;2.10;;;1.70;;
71265;SDS011;59030;52.052;8.550;2023-05-19T11:36:12;2.73;;;1.60;;
71265;SDS011;59030;52.052;8.550;2023-05-19T11:38:41;3.37;;;1.40;;
71265;SDS011;59030;52.052;8.550;2023-05-19T11:41:09;2.23;;;1.50;;
71265;SDS011;59030;52.052;8.550;2023-05-19T11:43:42;3.10;;;1.43;;
71265;SDS011;59030;52.052;8.550;2023-05-19T11:46:15;1.73;;;1.30;;
71265;SDS011;59030;52.052;8.550;2023-05-19T11:48:43;1.73;;;1.50;;
71265;SDS011;59030;52.052;8.550;2023-05-19T11:51:12;2.00;;;1.63;;
71265;SDS011;59030;52.052;8.550;2023-05-19T11:53:43;1.97;;;1.40;;
71265;SDS011;59030;52.052;8.550;2023-05-19T11:56:17;2.90;;;1.30;;
71265;SDS011;59030;52.052;8.550;2023-05-19T11:58:45;2.07;;;1.30;;
71265;SDS011;59030;52.052;8.550;2023-05-19T12:01:15;2.97;;;1.67;;
71265;SDS011;59030;52.052;8.550;2023-05-19T12:03:44;3.03;;;1.40;;
71265;SDS011;59030;52.052;8.550;2023-05-19T12:06:12;3.00;;;1.50;;
71265;SDS011;59030;52.052;8.550;2023-05-19T12:08:42;3.83;;;1.60;;
71265;SDS011;59030;52.052;8.550;2023-05-19T12:11:11;2.07;;;1.40;;
71265;SDS011;59030;52.052;8.550;2023-05-19T12:13:49;3.00;;;1.73;;
71265;SDS011;59030;52.052;8.550;2023-05-19T12:16:21;3.83;;;1.70;;
71265;SDS011;59030;52.052;8.550;2023-05-19T12:18:48;2.30;;;1.50;;
71265;SDS011;59030;52.052;8.550;2023-05-19T12:21:16;3.90;;;1.87;;
71265;SDS011;59030;52.052;8.550;2023-05-19T12:23:43;2.23;;;1.80;;
71265;SDS011;59030;52.052;8.550;2023-05-19T12:26:11;2.47;;;1.60;;
71265;SDS011;59030;52.052;8.550;2023-05-19T12:28:44;3.07;;;1.70;;
71265;SDS011;59030;52.052;8.550;2023-05-19T12:31:12;2.67;;;1.70;;
71265;SDS011;59030;52.052;8.550;2023-05-19T12:33:39;2.90;;;1.93;;
71265;SDS011;59030;52.052;8.550;2023-05-19T12:36:07;2.47;;;1.60;;
71265;SDS011;59030;52.052;8.550;2023-05-19T12:38:38;2.80;;;1.60;;
71265;SDS011;59030;52.052;8.550;2023-05-19T12:41:11;1.80;;;1.53;;
71265;SDS011;59030;52.052;8.550;2023-05-19T12:43:47;2.10;;;1.50;;
71265;SDS011;59030;52.052;8.550;2023-05-19T12:46:17;2.23;;;1.57;;
71265;SDS011;59030;52.052;8.550;2023-05-19T12:48:46;2.30;;;1.60;;
71265;SDS011;59030;52.052;8.550;2023-05-19T12:51:20;3.13;;;1.70;;
71265;SDS011;59030;52.052;8.550;2023-05-19T12:53:53;1.70;;;1.60;;
71265;SDS011;59030;52.052;8.550;2023-05-19T12:56:36;1.87;;;1.60;;
71265;SDS011;59030;52.052;8.550;2023-05-19T12:59:04;2.30;;;1.60;;
71265;SDS011;59030;52.052;8.550;2023-05-19T13:01:41;2.50;;;1.80;;
71265;SDS011;59030;52.052;8.550;2023-05-19T13:04:09;1.90;;;1.70;;
71265;SDS011;59030;52.052;8.550;2023-05-19T13:06:39;2.30;;;1.70;;
71265;SDS011;59030;52.052;8.550;2023-05-19T13:09:09;2.10;;;1.90;;
71265;SDS011;59030;52.052;8.550;2023-05-19T13:11:42;4.33;;;2.03;;
71265;SDS011;59030;52.052;8.550;2023-05-19T13:14:11;2.13;;;1.73;;
71265;SDS011;59030;52.052;8.550;2023-05-19T13:16:53;2.53;;;1.87;;
71265;SDS011;59030;52.052;8.550;2023-05-19T13:19:23;2.33;;;1.80;;
71265;SDS011;59030;52.052;8.550;2023-05-19T13:21:57;4.03;;;2.00;;
71265;SDS011;59030;52.052;8.550;2023-05-19T13:24:38;2.87;;;1.97;;
71265;SDS011;59030;52.052;8.550;2023-05-19T13:27:07;2.40;;;1.90;;
71265;SDS011;59030;52.052;8.550;2023-05-19T13:29:36;2.10;;;1.70;;
71265;SDS011;59030;52.052;8.550;2023-05-19T13:32:04;4.07;;;1.90;;
71265;SDS011;59030;52.052;8.550;2023-05-19T13:34:37;2.23;;;1.80;;
71265;SDS011;59030;52.052;8.550;2023-05-19T13:37:22;2.50;;;1.80;;
71265;SDS011;59030;52.052;8.550;2023-05-19T13:39:50;1.80;;;1.70;;
71265;SDS011;59030;52.052;8.550;2023-05-19T13:42:18;2.40;;;1.80;;
71265;SDS011;59030;52.052;8.550;2023-05-19T13:47:49;2.00;;;1.80;;
71265;SDS011;59030;52.052;8.550;2023-05-19T13:50:28;2.60;;;1.90;;
71265;SDS011;59030;52.052;8.550;2023-05-19T13:59:34;1.83;;;1.70;;
71265;SDS011;59030;52.052;8.550;2023-05-19T17:58:57;1.93;;;1.70;;
71265;SDS011;59030;52.052;8.550;2023-05-19T18:01:29;1.50;;;1.40;;
71265;SDS011;59030;52.052;8.550;2023-05-19T18:04:00;1.57;;;1.47;;
71265;SDS011;59030;52.052;8.550;2023-05-19T18:06:31;2.00;;;1.70;;
71265;SDS011;59030;52.052;8.550;2023-05-19T18:09:02;3.83;;;1.70;;
71265;SDS011;59030;52.052;8.550;2023-05-19T18:11:32;2.67;;;1.33;;
71265;SDS011;59030;52.052;8.550;2023-05-19T18:14:03;1.43;;;1.33;;
71265;SDS011;59030;52.052;8.550;2023-05-19T18:16:44;2.10;;;1.67;;
71265;SDS011;59030;52.052;8.550;2023-05-19T18:19:16;1.70;;;1.60;;
71265;SDS011;59030;52.052;8.550;2023-05-19T18:21:47;1.70;;;1.60;;
71265;SDS011;59030;52.052;8.550;2023-05-19T18:24:22;1.60;;;1.50;;
71265;SDS011;59030;52.052;8.550;2023-05-19T18:29:45;1.77;;;1.37;;
71265;SDS011;59030;52.052;8.550;2023-05-19T18:32:19;3.10;;;1.40;;
71265;SDS011;59030;52.052;8.550;2023-05-19T18:34:42;2.23;;;1.80;;
71265;SDS011;59030;52.052;8.550;2023-05-19T18:37:12;1.63;;;1.53;;
71265;SDS011;59030;52.052;8.550;2023-05-19T18:39:43;1.53;;;1.43;;
71265;SDS011;59030;52.052;8.550;2023-05-19T18:42:15;2.53;;;1.53;;
71265;SDS011;59030;52.052;8.550;2023-05-19T18:44:43;1.60;;;1.50;;
71265;SDS011;59030;52.052;8.550;2023-05-19T18:47:11;2.47;;;1.60;;
71265;SDS011;59030;52.052;8.550;2023-05-19T18:49:39;4.17;;;1.70;;
71265;SDS011;59030;52.052;8.550;2023-05-19T18:52:07;1.53;;;1.43;;
71265;SDS011;59030;52.052;8.550;2023-05-19T18:54:37;3.77;;;1.60;;
71265;SDS011;59030;52.052;8.550;2023-05-19T18:57:06;2.03;;;1.60;;
71265;SDS011;59030;52.052;8.550;2023-05-19T18:59:34;5.20;;;1.70;;
71265;SDS011;59030;52.052;8.550;2023-05-19T19:02:02;1.90;;;1.73;;
71265;SDS011;59030;52.052;8.550;2023-05-19T19:04:31;3.37;;;1.60;;
71265;SDS011;59030;52.052;8.550;2023-05-19T19:07:00;2.63;;;1.53;;
71265;SDS011;59030;52.052;8.550;2023-05-19T19:09:27;2.17;;;1.53;;
71265;SDS011;59030;52.052;8.550;2023-05-19T19:12:03;1.50;;;1.40;;
71265;SDS011;59030;52.052;8.550;2023-05-19T19:14:32;1.63;;;1.50;;
71265;SDS011;59030;52.052;8.550;2023-05-19T19:17:00;1.93;;;1.60;;
71265;SDS011;59030;52.052;8.550;2023-05-19T19:19:30;2.27;;;1.73;;
71265;SDS011;59030;52.052;8.550;2023-05-19T19:21:58;1.40;;;1.30;;
71265;SDS011;59030;52.052;8.550;2023-05-19T19:24:26;4.00;;;1.80;;